createdAt,value
2018-01-26T00:02:01.745Z,9.30
2018-01-26T00:04:29.154Z,9.33
2018-01-26T00:06:56.543Z,9.25
2018-01-26T00:09:23.965Z,9.28
2018-01-26T00:11:51.354Z,9.26
2018-01-26T00:14:18.758Z,9.38
2018-01-26T00:16:46.135Z,9.47
2018-01-26T00:19:13.558Z,9.52
2018-01-26T00:21:40.950Z,9.58
2018-01-26T00:24:08.346Z,9.63
2018-01-26T00:26:35.734Z,9.74
2018-01-26T00:29:03.131Z,9.77
2018-01-26T00:31:30.521Z,9.72
2018-01-26T00:33:57.926Z,9.61
2018-01-26T00:36:25.408Z,9.61
2018-01-26T00:38:52.857Z,9.63
2018-01-26T00:41:20.255Z,9.66
2018-01-26T00:43:47.647Z,9.58
2018-01-26T00:46:15.044Z,9.66
2018-01-26T00:48:42.443Z,9.68
2018-01-26T00:51:10.082Z,9.62
2018-01-26T00:53:37.544Z,9.74
2018-01-26T00:56:04.957Z,9.77
2018-01-26T00:58:32.361Z,9.70
2018-01-26T01:00:59.769Z,9.57
2018-01-26T01:03:27.226Z,9.53
2018-01-26T01:05:54.627Z,9.65
2018-01-26T01:08:22.021Z,9.73
2018-01-26T01:10:49.522Z,9.67
2018-01-26T01:13:16.921Z,9.71
2018-01-26T01:15:44.340Z,9.66
2018-01-26T01:18:11.715Z,9.61
2018-01-26T01:20:39.112Z,9.68
2018-01-26T01:23:06.498Z,9.56
2018-01-26T01:25:33.909Z,9.62
2018-01-26T01:28:01.318Z,9.58
2018-01-26T01:30:28.761Z,9.63
2018-01-26T01:32:56.156Z,9.68
2018-01-26T01:35:23.542Z,9.55
2018-01-26T01:37:50.940Z,9.59
2018-01-26T01:40:18.341Z,9.43
2018-01-26T01:42:45.842Z,9.50
2018-01-26T01:45:14.158Z,9.57
2018-01-26T01:47:41.567Z,9.68
2018-01-26T01:50:08.965Z,9.64
2018-01-26T01:52:36.354Z,9.59
2018-01-26T01:55:03.739Z,9.57
2018-01-26T01:57:31.194Z,9.62
2018-01-26T01:59:58.603Z,9.61
2018-01-26T02:02:26.006Z,9.67
2018-01-26T02:04:53.406Z,9.60
2018-01-26T02:07:20.816Z,9.58
2018-01-26T02:09:48.220Z,9.53
2018-01-26T02:12:15.654Z,9.40
2018-01-26T02:14:43.071Z,9.59
2018-01-26T02:17:10.486Z,9.47
2018-01-26T02:19:37.897Z,9.45
2018-01-26T02:22:05.310Z,9.59
2018-01-26T02:24:50.222Z,9.53
2018-01-26T02:27:17.622Z,9.49
2018-01-26T02:29:45.027Z,9.47
2018-01-26T02:32:12.446Z,9.36
2018-01-26T02:34:39.855Z,9.31
2018-01-26T02:37:07.264Z,9.38
2018-01-26T02:39:34.662Z,9.47
2018-01-26T02:42:02.109Z,9.50
2018-01-26T02:44:29.540Z,9.48
2018-01-26T02:46:56.948Z,9.35
2018-01-26T02:49:24.373Z,9.39
2018-01-26T02:51:51.742Z,9.43
2018-01-26T02:54:19.174Z,9.45
2018-01-26T02:56:46.583Z,9.52
2018-01-26T02:59:13.972Z,9.59
2018-01-26T03:01:41.375Z,9.55
2018-01-26T03:04:08.810Z,9.44
2018-01-26T03:06:36.194Z,9.48
2018-01-26T03:09:03.602Z,9.40
2018-01-26T03:11:31.012Z,9.27
2018-01-26T03:13:58.417Z,9.13
2018-01-26T03:16:25.803Z,9.05
2018-01-26T03:18:53.245Z,8.95
2018-01-26T03:21:20.644Z,9.01
2018-01-26T03:23:48.058Z,9.04
2018-01-26T03:26:15.454Z,9.12
2018-01-26T03:28:42.877Z,9.13
2018-01-26T03:31:10.262Z,9.06
2018-01-26T03:33:37.666Z,9.04
2018-01-26T03:36:05.082Z,9.10
2018-01-26T03:38:32.477Z,9.07
2018-01-26T03:40:59.882Z,9.17
2018-01-26T03:43:27.389Z,9.17
2018-01-26T03:45:54.783Z,9.20
2018-01-26T03:48:22.210Z,9.31
2018-01-26T03:50:49.614Z,9.21
2018-01-26T03:53:17.001Z,9.18
2018-01-26T03:55:44.409Z,9.11
2018-01-26T03:58:11.799Z,9.11
2018-01-26T04:00:39.214Z,9.03
2018-01-26T04:03:06.614Z,9.16
2018-01-26T04:05:34.022Z,9.19
2018-01-26T04:08:01.448Z,9.20
2018-01-26T04:10:28.842Z,9.28
2018-01-26T04:12:56.239Z,9.27
2018-01-26T04:15:23.635Z,9.31
2018-01-26T04:17:51.069Z,9.40
2018-01-26T04:20:18.487Z,9.47
2018-01-26T04:22:45.892Z,9.51
2018-01-26T04:25:13.284Z,9.60
2018-01-26T04:27:40.682Z,9.61
2018-01-26T04:30:08.074Z,9.61
2018-01-26T04:32:35.473Z,9.60
2018-01-26T04:35:02.980Z,9.51
2018-01-26T04:37:30.411Z,9.60
2018-01-26T04:39:57.805Z,9.54
2018-01-26T04:42:25.626Z,9.61
2018-01-26T04:44:53.023Z,9.59
2018-01-26T04:47:20.434Z,9.59
2018-01-26T04:49:47.895Z,9.60
2018-01-26T04:52:15.351Z,9.67
2018-01-26T04:54:42.694Z,9.60
2018-01-26T04:57:10.089Z,9.63
2018-01-26T04:59:37.507Z,9.69
2018-01-26T05:02:04.904Z,9.70
2018-01-26T05:04:32.333Z,9.72
2018-01-26T05:06:59.730Z,9.70
2018-01-26T05:09:27.130Z,9.73
2018-01-26T05:11:54.554Z,9.77
2018-01-26T05:14:21.969Z,9.77
2018-01-26T05:16:49.376Z,9.76
2018-01-26T05:19:16.821Z,9.74
2018-01-26T05:21:44.210Z,9.73
2018-01-26T05:24:11.629Z,9.73
2018-01-26T05:26:39.038Z,9.68
2018-01-26T05:29:06.551Z,9.68
2018-01-26T05:31:33.947Z,9.62
2018-01-26T05:34:01.345Z,9.58
2018-01-26T05:36:28.738Z,9.61
2018-01-26T05:38:56.152Z,9.59
2018-01-26T05:41:23.558Z,9.55
2018-01-26T05:43:50.990Z,9.52
2018-01-26T05:46:18.382Z,9.50
2018-01-26T05:48:45.796Z,9.32
2018-01-26T05:51:13.184Z,9.29
2018-01-26T05:53:40.581Z,9.38
2018-01-26T05:56:07.998Z,9.34
2018-01-26T05:58:35.489Z,9.17
2018-01-26T06:01:02.895Z,9.08
2018-01-26T06:03:30.293Z,9.12
2018-01-26T06:05:57.689Z,9.18
2018-01-26T06:08:25.082Z,9.26
2018-01-26T06:10:52.487Z,9.34
2018-01-26T06:13:19.878Z,9.42
2018-01-26T06:15:47.282Z,9.39
2018-01-26T06:18:14.694Z,9.31
2018-01-26T06:20:42.222Z,9.15
2018-01-26T06:23:09.621Z,9.27
2018-01-26T06:25:37.022Z,9.24
2018-01-26T06:28:04.418Z,9.33
2018-01-26T06:30:32.678Z,9.39
2018-01-26T06:33:00.084Z,9.45
2018-01-26T06:35:27.510Z,9.51
2018-01-26T06:40:21.655Z,9.56
2018-01-26T06:42:49.067Z,9.52
2018-01-26T06:45:16.478Z,9.57
2018-01-26T06:47:43.945Z,9.60
2018-01-26T06:50:11.391Z,9.60
2018-01-26T06:52:38.798Z,9.58
2018-01-26T06:55:06.190Z,9.65
2018-01-26T06:57:33.594Z,9.64
2018-01-26T07:00:01.011Z,9.64
2018-01-26T07:02:28.414Z,9.58
2018-01-26T07:04:55.809Z,9.60
2018-01-26T07:07:23.211Z,9.58
2018-01-26T07:09:50.622Z,9.54
2018-01-26T07:12:18.026Z,9.49
2018-01-26T07:14:45.422Z,9.46
2018-01-26T07:17:12.826Z,9.43
2018-01-26T07:19:40.233Z,9.40
2018-01-26T07:22:07.634Z,9.42
2018-01-26T07:24:35.022Z,9.39
2018-01-26T07:27:02.451Z,9.40
2018-01-26T07:29:29.846Z,9.37
2018-01-26T07:31:57.321Z,9.28
2018-01-26T07:34:24.717Z,9.21
2018-01-26T07:36:52.115Z,9.08
2018-01-26T07:39:19.593Z,9.02
2018-01-26T07:41:46.985Z,8.90
2018-01-26T07:44:14.387Z,8.88
2018-01-26T07:46:41.791Z,8.92
2018-01-26T07:49:09.199Z,8.98
2018-01-26T07:51:36.603Z,9.04
2018-01-26T07:54:04.020Z,9.05
2018-01-26T07:56:31.414Z,8.98
2018-01-26T07:58:58.822Z,8.98
2018-01-26T08:01:26.227Z,9.02
2018-01-26T08:03:53.666Z,9.03
2018-01-26T08:06:21.062Z,9.05
2018-01-26T08:08:48.513Z,8.86
2018-01-26T08:11:15.906Z,8.77
2018-01-26T08:13:43.323Z,8.88
2018-01-26T08:16:10.714Z,8.78
2018-01-26T08:18:38.152Z,8.88
2018-01-26T08:21:05.635Z,8.88
2018-01-26T08:23:33.065Z,8.92
2018-01-26T08:26:00.462Z,8.95
2018-01-26T08:28:27.867Z,8.74
2018-01-26T08:30:55.283Z,8.85
2018-01-26T08:33:22.686Z,8.84
2018-01-26T08:35:50.614Z,8.74
2018-01-26T08:38:18.030Z,8.81
2018-01-26T08:40:45.425Z,8.62
2018-01-26T08:43:12.845Z,8.56
2018-01-26T08:45:40.240Z,8.55
2018-01-26T08:48:07.650Z,8.63
2018-01-26T08:50:35.060Z,8.55
2018-01-26T08:53:02.458Z,8.78
2018-01-26T08:55:32.334Z,8.68
2018-01-26T08:57:59.741Z,8.74
2018-01-26T09:00:27.170Z,8.88
2018-01-26T09:02:54.562Z,9.00
2018-01-26T09:05:21.978Z,8.87
2018-01-26T09:07:49.383Z,9.05
2018-01-26T09:10:16.782Z,9.14
2018-01-26T09:12:44.174Z,9.17
2018-01-26T09:15:11.589Z,9.24
2018-01-26T09:17:38.983Z,9.29
2018-01-26T09:20:06.400Z,9.46
2018-01-26T09:22:33.804Z,9.35
2018-01-26T09:25:01.191Z,9.47
2018-01-26T09:27:28.622Z,9.56
2018-01-26T09:29:55.998Z,9.71
2018-01-26T09:32:23.407Z,9.57
2018-01-26T09:34:50.818Z,9.35
2018-01-26T09:37:18.231Z,9.53
2018-01-26T09:39:46.601Z,9.26
2018-01-26T09:42:14.007Z,9.47
2018-01-26T09:44:41.407Z,9.70
2018-01-26T09:47:08.987Z,9.73
2018-01-26T09:49:36.374Z,9.82
2018-01-26T09:52:03.847Z,9.67
2018-01-26T09:54:31.242Z,9.62
2018-01-26T09:56:58.664Z,9.66
2018-01-26T09:59:26.167Z,9.72
2018-01-26T10:01:53.610Z,9.67
2018-01-26T10:04:21.020Z,9.39
2018-01-26T10:06:48.421Z,9.43
2018-01-26T10:09:15.819Z,9.55
2018-01-26T10:11:43.339Z,9.61
2018-01-26T10:14:10.800Z,9.34
2018-01-26T10:16:38.178Z,9.40
2018-01-26T10:19:05.589Z,9.52
2018-01-26T10:21:33.054Z,9.27
2018-01-26T10:24:00.510Z,9.07
2018-01-26T10:26:27.911Z,9.12
2018-01-26T10:28:55.305Z,9.09
2018-01-26T10:31:23.230Z,9.24
2018-01-26T10:33:50.630Z,9.33
2018-01-26T10:36:18.026Z,9.13
2018-01-26T10:38:45.461Z,9.04
2018-01-26T10:41:12.839Z,9.04
2018-01-26T10:43:40.286Z,9.27
2018-01-26T10:46:07.726Z,9.58
2018-01-26T10:48:35.150Z,9.47
2018-01-26T10:51:02.550Z,9.75
2018-01-26T10:53:29.966Z,9.63
2018-01-26T10:55:57.469Z,9.69
2018-01-26T10:58:24.875Z,9.50
2018-01-26T11:00:52.269Z,9.50
2018-01-26T11:03:19.697Z,9.69
2018-01-26T11:05:47.107Z,9.72
2018-01-26T11:08:14.526Z,9.66
2018-01-26T11:10:41.932Z,9.74
2018-01-26T11:13:09.327Z,9.22
2018-01-26T11:15:36.731Z,9.24
2018-01-26T11:18:04.126Z,9.53
2018-01-26T11:20:31.627Z,9.57
2018-01-26T11:22:59.039Z,9.56
2018-01-26T11:25:26.454Z,9.75
2018-01-26T11:27:53.854Z,9.40
2018-01-26T11:30:21.291Z,9.40
2018-01-26T11:32:48.691Z,9.56
2018-01-26T11:35:16.087Z,9.46
2018-01-26T11:37:43.487Z,9.86
2018-01-26T11:40:10.959Z,10.13
2018-01-26T11:42:38.360Z,10.21
2018-01-26T11:45:05.759Z,10.24
2018-01-26T11:47:33.215Z,10.38
2018-01-26T11:50:00.627Z,10.64
2018-01-26T11:52:28.014Z,10.79
2018-01-26T11:54:55.484Z,10.43
2018-01-26T11:57:22.913Z,10.30
2018-01-26T11:59:50.294Z,10.16
2018-01-26T12:02:17.718Z,10.25
2018-01-26T12:04:45.132Z,10.57
2018-01-26T12:07:12.553Z,10.35
2018-01-26T12:09:39.949Z,10.49
2018-01-26T12:12:07.358Z,10.45
2018-01-26T12:14:34.753Z,10.54
2018-01-26T12:17:02.166Z,10.74
2018-01-26T12:19:29.566Z,10.76
2018-01-26T12:21:56.976Z,10.78
2018-01-26T12:24:24.372Z,10.49
2018-01-26T12:26:51.829Z,10.37
2018-01-26T12:29:19.293Z,10.22
2018-01-26T12:31:46.666Z,10.16
2018-01-26T12:34:14.099Z,10.15
2018-01-26T12:36:41.598Z,10.01
2018-01-26T12:39:08.911Z,9.77
2018-01-26T12:41:36.306Z,9.87
2018-01-26T12:44:03.716Z,9.67
2018-01-26T12:46:31.101Z,9.58
2018-01-26T12:48:58.570Z,9.68
2018-01-26T12:51:25.966Z,9.48
2018-01-26T12:53:53.373Z,9.52
2018-01-26T12:56:20.779Z,9.36
2018-01-26T12:58:48.179Z,9.53
2018-01-26T13:01:15.658Z,9.83
2018-01-26T13:03:44.011Z,10.17
2018-01-26T13:06:11.852Z,9.91
2018-01-26T13:08:39.259Z,10.17
2018-01-26T13:11:06.656Z,10.32
2018-01-26T13:13:34.079Z,10.40
2018-01-26T13:16:01.454Z,10.56
2018-01-26T13:18:28.906Z,10.46
2018-01-26T13:20:56.361Z,10.53
2018-01-26T13:23:23.771Z,10.82
2018-01-26T13:25:51.162Z,10.69
2018-01-26T13:28:18.634Z,10.95
2018-01-26T13:30:46.071Z,10.77
2018-01-26T13:33:13.484Z,10.68
2018-01-26T13:35:40.876Z,10.40
2018-01-26T13:38:08.286Z,10.38
2018-01-26T13:40:35.709Z,10.45
2018-01-26T13:43:03.133Z,10.37
2018-01-26T13:45:30.562Z,10.43
2018-01-26T13:47:58.041Z,10.44
2018-01-26T13:50:25.426Z,10.58
2018-01-26T13:52:52.863Z,10.84
2018-01-26T13:55:20.275Z,10.90
2018-01-26T13:57:47.670Z,10.96
2018-01-26T14:00:15.091Z,11.10
2018-01-26T14:02:42.514Z,11.33
2018-01-26T14:05:09.922Z,11.22
2018-01-26T14:07:37.319Z,11.27
2018-01-26T14:10:04.722Z,11.44
2018-01-26T14:12:32.203Z,11.09
2018-01-26T14:14:59.605Z,11.10
2018-01-26T14:17:27.018Z,10.94
2018-01-26T14:19:54.421Z,10.44
2018-01-26T14:22:21.933Z,10.71
2018-01-26T14:24:49.346Z,10.84
2018-01-26T14:27:16.746Z,10.90
2018-01-26T14:29:44.150Z,10.88
2018-01-26T14:32:11.559Z,10.90
2018-01-26T14:34:38.957Z,10.99
2018-01-26T14:37:06.358Z,10.49
2018-01-26T14:39:33.790Z,10.54
2018-01-26T14:42:01.185Z,10.51
2018-01-26T14:44:28.615Z,10.56
2018-01-26T14:46:56.135Z,10.16
2018-01-26T14:49:23.523Z,10.05
2018-01-26T14:51:50.940Z,10.08
2018-01-26T14:54:18.333Z,10.01
2018-01-26T14:56:45.746Z,10.16
2018-01-26T14:59:13.202Z,10.23
2018-01-26T15:01:40.606Z,10.23
2018-01-26T15:04:08.039Z,10.38
2018-01-26T15:06:35.457Z,10.43
2018-01-26T15:09:02.855Z,10.45
2018-01-26T15:11:30.263Z,10.28
2018-01-26T15:13:57.658Z,10.34
2018-01-26T15:16:25.063Z,9.84
2018-01-26T15:18:52.458Z,9.89
2018-01-26T15:21:19.850Z,9.82
2018-01-26T15:23:47.282Z,9.72
2018-01-26T15:26:14.746Z,9.46
2018-01-26T15:28:42.149Z,9.25
2018-01-26T15:31:09.631Z,9.28
2018-01-26T15:33:37.036Z,9.16
2018-01-26T15:36:04.427Z,9.24
2018-01-26T15:38:31.839Z,9.25
2018-01-26T15:40:59.235Z,9.23
2018-01-26T15:43:26.634Z,9.25
2018-01-26T15:45:54.071Z,9.30
2018-01-26T15:48:21.432Z,9.36
2018-01-26T15:50:48.849Z,9.42
2018-01-26T15:53:16.296Z,9.51
2018-01-26T15:55:43.672Z,9.59
2018-01-26T15:58:11.134Z,9.60
2018-01-26T16:00:38.531Z,9.61
2018-01-26T16:03:05.933Z,9.46
2018-01-26T16:05:33.338Z,9.49
2018-01-26T16:08:00.752Z,9.52
2018-01-26T16:10:28.142Z,9.49
2018-01-26T16:12:55.574Z,9.40
2018-01-26T16:15:22.967Z,9.40
2018-01-26T16:17:50.370Z,9.53
2018-01-26T16:20:17.826Z,9.56
2018-01-26T16:22:45.222Z,9.57
2018-01-26T16:25:12.622Z,9.47
2018-01-26T16:27:40.031Z,9.33
2018-01-26T16:30:07.452Z,9.45
2018-01-26T16:32:34.862Z,9.54
2018-01-26T16:35:02.262Z,9.52
2018-01-26T16:37:29.678Z,9.51
2018-01-26T16:39:57.081Z,9.52
2018-01-26T16:42:24.467Z,9.53
2018-01-26T16:44:51.875Z,9.52
2018-01-26T16:47:19.287Z,9.53
2018-01-26T16:49:46.715Z,9.46
2018-01-26T16:52:14.206Z,9.46
2018-01-26T16:54:41.634Z,9.48
2018-01-26T16:57:09.009Z,9.43
2018-01-26T16:59:36.436Z,9.25
2018-01-26T17:02:03.841Z,9.13
2018-01-26T17:04:31.234Z,9.03
2018-01-26T17:06:58.756Z,8.99
2018-01-26T17:09:26.198Z,8.89
2018-01-26T17:11:53.590Z,8.80
2018-01-26T17:14:20.995Z,8.78
2018-01-26T17:16:48.417Z,8.86
2018-01-26T17:19:15.805Z,8.88
2018-01-26T17:21:43.232Z,8.91
2018-01-26T17:24:10.625Z,8.91
2018-01-26T17:26:38.018Z,8.93
2018-01-26T17:29:05.426Z,8.94
2018-01-26T17:31:32.817Z,8.94
2018-01-26T17:34:00.222Z,8.94
2018-01-26T17:36:27.622Z,8.81
2018-01-26T17:38:55.063Z,8.83
2018-01-26T17:41:22.443Z,8.86
2018-01-26T17:43:49.871Z,8.92
2018-01-26T17:46:17.271Z,8.86
2018-01-26T17:48:44.661Z,8.94
2018-01-26T17:51:12.063Z,8.79
2018-01-26T17:53:39.465Z,8.87
2018-01-26T17:56:06.885Z,8.92
2018-01-26T17:58:34.283Z,8.98
2018-01-26T18:01:01.681Z,9.04
2018-01-26T18:03:29.095Z,9.06
2018-01-26T18:05:56.494Z,8.94
2018-01-26T18:08:23.883Z,8.78
2018-01-26T18:10:51.282Z,8.83
2018-01-26T18:13:24.658Z,8.77
2018-01-26T18:15:52.072Z,8.86
2018-01-26T18:18:19.551Z,8.94
2018-01-26T18:20:47.982Z,8.97
2018-01-26T18:23:15.379Z,9.04
2018-01-26T18:25:42.767Z,8.92
2018-01-26T18:28:10.171Z,8.93
2018-01-26T18:30:37.571Z,9.06
2018-01-26T18:33:04.970Z,9.05
2018-01-26T18:35:32.366Z,9.13
2018-01-26T18:37:59.801Z,9.17
2018-01-26T18:40:27.195Z,9.17
2018-01-26T18:42:54.602Z,9.24
2018-01-26T18:45:21.997Z,9.26
2018-01-26T18:47:49.402Z,9.25
2018-01-26T18:50:16.796Z,9.19
2018-01-26T18:52:44.199Z,9.23
2018-01-26T18:55:11.620Z,9.28
2018-01-26T18:57:39.016Z,9.32
2018-01-26T19:00:06.486Z,9.38
2018-01-26T19:02:33.908Z,9.27
2018-01-26T19:05:01.307Z,9.23
2018-01-26T19:07:28.718Z,8.90
2018-01-26T19:09:56.127Z,8.78
2018-01-26T19:12:23.539Z,8.83
2018-01-26T19:14:50.999Z,8.93
2018-01-26T19:17:18.410Z,9.03
2018-01-26T19:19:45.806Z,9.08
2018-01-26T19:22:13.267Z,9.17
2018-01-26T19:24:40.690Z,9.09
2018-01-26T19:27:08.116Z,9.16
2018-01-26T19:29:35.562Z,9.17
2018-01-26T19:32:03.069Z,9.20
2018-01-26T19:34:30.466Z,9.30
2018-01-26T19:36:57.859Z,9.31
2018-01-26T19:39:25.288Z,9.25
2018-01-26T19:41:52.690Z,9.16
2018-01-26T19:44:20.137Z,9.15
2018-01-26T19:46:47.716Z,9.05
2018-01-26T19:49:15.143Z,9.15
2018-01-26T19:51:42.527Z,9.25
2018-01-26T19:54:09.931Z,9.30
2018-01-26T19:56:37.330Z,9.34
2018-01-26T19:59:04.734Z,9.37
2018-01-26T20:01:32.186Z,9.35
2018-01-26T20:04:05.492Z,9.37
2018-01-26T20:06:50.346Z,9.41
2018-01-26T20:09:23.349Z,9.41
2018-01-26T20:11:56.355Z,9.37
2018-01-26T20:14:23.786Z,9.29
2018-01-26T20:16:51.201Z,9.35
2018-01-26T20:19:18.606Z,9.39
2018-01-26T20:21:46.007Z,9.42
2018-01-26T20:24:13.419Z,9.43
2018-01-26T20:26:40.890Z,9.40
2018-01-26T20:29:08.294Z,9.36
2018-01-26T20:31:35.697Z,9.40
2018-01-26T20:34:03.225Z,9.31
2018-01-26T20:36:30.664Z,9.42
2018-01-26T20:38:58.063Z,9.43
2018-01-26T20:41:25.537Z,9.49
2018-01-26T20:43:52.926Z,9.46
2018-01-26T20:46:20.323Z,9.46
2018-01-26T20:48:47.735Z,9.43
2018-01-26T20:51:15.163Z,9.31
2018-01-26T20:53:42.592Z,9.43
2018-01-26T20:56:09.966Z,9.38
2018-01-26T20:58:37.383Z,9.45
2018-01-26T21:01:04.922Z,9.39
2018-01-26T21:03:32.347Z,9.28
2018-01-26T21:05:59.758Z,9.34
2018-01-26T21:08:27.142Z,9.12
2018-01-26T21:13:34.550Z,9.09
2018-01-26T21:16:01.974Z,9.14
2018-01-26T21:18:29.377Z,9.31
2018-01-26T21:20:56.782Z,9.27
2018-01-26T21:23:24.179Z,9.30
2018-01-26T21:25:51.588Z,9.37
2018-01-26T21:28:19.003Z,9.40
2018-01-26T21:30:46.432Z,9.46
2018-01-26T21:33:13.847Z,9.48
2018-01-26T21:35:41.270Z,9.53
2018-01-26T21:38:08.778Z,9.45
2018-01-26T21:40:36.189Z,9.48
2018-01-26T21:43:03.582Z,9.42
2018-01-26T21:45:30.978Z,9.40
2018-01-26T21:47:58.378Z,9.43
2018-01-26T21:50:25.791Z,9.23
2018-01-26T21:52:53.195Z,9.31
2018-01-26T21:55:20.586Z,9.37
2018-01-26T21:57:48.085Z,9.41
2018-01-26T22:00:15.490Z,9.38
2018-01-26T22:02:42.886Z,9.44
2018-01-26T22:05:16.120Z,9.45
2018-01-26T22:07:43.526Z,9.46
2018-01-26T22:10:10.923Z,9.38
2018-01-26T22:12:38.322Z,9.33
2018-01-26T22:15:05.719Z,8.96
2018-01-26T22:17:33.120Z,8.71
2018-01-26T22:20:00.505Z,8.67
2018-01-26T22:22:27.917Z,8.63
2018-01-26T22:24:55.314Z,8.52
2018-01-26T22:27:22.711Z,8.61
2018-01-26T22:29:50.140Z,8.55
2018-01-26T22:32:18.426Z,8.60
2018-01-26T22:34:45.820Z,8.57
2018-01-26T22:37:13.230Z,8.69
2018-01-26T22:39:40.718Z,8.76
2018-01-26T22:42:08.126Z,8.81
2018-01-26T22:44:35.506Z,8.86
2018-01-26T22:47:02.991Z,8.95
2018-01-26T22:49:30.374Z,9.02
2018-01-26T22:51:57.786Z,9.03
2018-01-26T22:54:25.178Z,9.01
2018-01-26T22:56:52.601Z,8.88
2018-01-26T22:59:20.010Z,8.80
2018-01-26T23:01:47.402Z,8.69
2018-01-26T23:04:14.810Z,8.86
2018-01-26T23:06:42.214Z,8.65
2018-01-26T23:09:09.633Z,8.67
2018-01-26T23:11:37.017Z,8.79
2018-01-26T23:14:04.425Z,8.62
2018-01-26T23:16:31.819Z,8.72
2018-01-26T23:18:59.234Z,8.61
2018-01-26T23:21:26.614Z,8.71
2018-01-26T23:23:54.018Z,8.68
2018-01-26T23:26:21.424Z,8.54
2018-01-26T23:28:48.856Z,8.54
2018-01-26T23:31:16.286Z,8.54
2018-01-26T23:33:43.695Z,8.27
2018-01-26T23:36:11.099Z,7.96
2018-01-26T23:38:38.494Z,8.12
2018-01-26T23:41:05.890Z,8.20
2018-01-26T23:43:33.299Z,8.00
2018-01-26T23:46:00.694Z,7.89
2018-01-26T23:48:28.098Z,7.73
2018-01-26T23:50:55.498Z,7.89
2018-01-26T23:53:22.902Z,7.77
2018-01-26T23:55:50.295Z,7.81
2018-01-26T23:58:17.707Z,7.87
